sensor_id;sensor_type;location;lat;lon;timestamp;pressure;altitude;pressure_sealevel;temperature;humidity
72038;BME280;59900;50.788;12.904;2023-03-26T00:00:59;96575.56;;;6.78;86.83
72038;BME280;59900;50.788;12.904;2023-03-26T00:03:25;96578.56;;;6.74;86.75
72038;BME280;59900;50.788;12.904;2023-03-26T00:08:28;96570.91;;;6.73;87.29
72038;BME280;59900;50.788;12.904;2023-03-26T00:10:54;96569.94;;;6.74;87.10
72038;BME280;59900;50.788;12.904;2023-03-26T00:13:19;96576.78;;;6.75;86.84
72038;BME280;59900;50.788;12.904;2023-03-26T00:15:44;96581.78;;;6.76;86.24
72038;BME280;59900;50.788;12.904;2023-03-26T00:18:10;96583.00;;;6.81;86.03
72038;BME280;59900;50.788;12.904;2023-03-26T00:20:35;96576.38;;;6.78;86.56
72038;BME280;59900;50.788;12.904;2023-03-26T00:23:02;96583.56;;;6.76;86.71
72038;BME280;59900;50.788;12.904;2023-03-26T00:25:27;96583.78;;;6.81;86.56
72038;BME280;59900;50.788;12.904;2023-03-26T00:27:53;96587.22;;;6.82;86.00
72038;BME280;59900;50.788;12.904;2023-03-26T00:30:19;96580.19;;;6.82;85.37
72038;BME280;59900;50.788;12.904;2023-03-26T00:32:44;96581.19;;;6.81;85.40
72038;BME280;59900;50.788;12.904;2023-03-26T00:35:09;96585.22;;;6.84;85.12
72038;BME280;59900;50.788;12.904;2023-03-26T00:37:35;96578.81;;;6.86;84.29
72038;BME280;59900;50.788;12.904;2023-03-26T00:40:00;96576.00;;;6.88;84.93
72038;BME280;59900;50.788;12.904;2023-03-26T00:42:31;96565.53;;;6.88;84.08
72038;BME280;59900;50.788;12.904;2023-03-26T00:44:57;96568.78;;;6.90;84.21
72038;BME280;59900;50.788;12.904;2023-03-26T00:47:23;96565.97;;;6.91;83.75
72038;BME280;59900;50.788;12.904;2023-03-26T00:49:49;96561.16;;;6.95;83.92
72038;BME280;59900;50.788;12.904;2023-03-26T00:52:14;96566.38;;;6.95;83.56
72038;BME280;59900;50.788;12.904;2023-03-26T00:54:50;96572.41;;;6.95;83.66
72038;BME280;59900;50.788;12.904;2023-03-26T00:57:16;96579.22;;;6.96;84.45
72038;BME280;59900;50.788;12.904;2023-03-26T00:59:42;96570.19;;;6.92;85.13
72038;BME280;59900;50.788;12.904;2023-03-26T01:02:11;96563.16;;;6.93;84.89
72038;BME280;59900;50.788;12.904;2023-03-26T01:04:44;96560.31;;;6.88;84.56
72038;BME280;59900;50.788;12.904;2023-03-26T01:07:11;96565.53;;;6.88;84.54
72038;BME280;59900;50.788;12.904;2023-03-26T01:09:40;96567.34;;;6.87;84.82
72038;BME280;59900;50.788;12.904;2023-03-26T01:12:16;96566.56;;;6.87;84.30
72038;BME280;59900;50.788;12.904;2023-03-26T01:14:42;96581.00;;;6.83;84.63
72038;BME280;59900;50.788;12.904;2023-03-26T01:17:08;96564.13;;;6.85;85.21
72038;BME280;59900;50.788;12.904;2023-03-26T01:19:50;96565.50;;;6.81;84.89
72038;BME280;59900;50.788;12.904;2023-03-26T01:22:23;96567.94;;;6.83;84.36
72038;BME280;59900;50.788;12.904;2023-03-26T01:24:50;96579.19;;;6.83;83.88
72038;BME280;59900;50.788;12.904;2023-03-26T01:27:41;96581.59;;;6.85;83.43
72038;BME280;59900;50.788;12.904;2023-03-26T01:30:38;96561.94;;;6.89;82.86
72038;BME280;59900;50.788;12.904;2023-03-26T01:33:12;96582.44;;;6.92;83.33
72038;BME280;59900;50.788;12.904;2023-03-26T01:36:24;96576.22;;;6.93;82.30
72038;BME280;59900;50.788;12.904;2023-03-26T01:38:58;96584.44;;;6.96;82.31
72038;BME280;59900;50.788;12.904;2023-03-26T01:41:32;96588.25;;;6.94;82.05
72038;BME280;59900;50.788;12.904;2023-03-26T01:44:06;96576.81;;;6.95;82.39
72038;BME280;59900;50.788;12.904;2023-03-26T01:46:34;96573.19;;;6.96;82.44
72038;BME280;59900;50.788;12.904;2023-03-26T01:49:03;96581.03;;;6.96;81.74
72038;BME280;59900;50.788;12.904;2023-03-26T01:51:32;96570.59;;;6.96;82.17
72038;BME280;59900;50.788;12.904;2023-03-26T01:53:59;96585.25;;;6.97;82.20
72038;BME280;59900;50.788;12.904;2023-03-26T01:56:35;96586.47;;;6.94;82.31
72038;BME280;59900;50.788;12.904;2023-03-26T02:02:03;96578.19;;;6.84;86.87
72038;BME280;59900;50.788;12.904;2023-03-26T02:04:41;96583.38;;;6.71;88.86
72038;BME280;59900;50.788;12.904;2023-03-26T02:07:26;96591.38;;;6.63;89.86
72038;BME280;59900;50.788;12.904;2023-03-26T02:10:02;96582.66;;;6.49;91.69
72038;BME280;59900;50.788;12.904;2023-03-26T02:12:31;96569.38;;;6.44;92.22
72038;BME280;59900;50.788;12.904;2023-03-26T02:14:58;96564.97;;;6.45;92.00
72038;BME280;59900;50.788;12.904;2023-03-26T02:17:24;96576.78;;;6.41;92.07
72038;BME280;59900;50.788;12.904;2023-03-26T02:19:49;96575.00;;;6.41;92.48
72038;BME280;59900;50.788;12.904;2023-03-26T02:22:15;96564.56;;;6.41;92.08
72038;BME280;59900;50.788;12.904;2023-03-26T02:24:42;96569.78;;;6.41;92.20
72038;BME280;59900;50.788;12.904;2023-03-26T02:27:07;96578.97;;;6.37;91.82
72038;BME280;59900;50.788;12.904;2023-03-26T02:29:34;96574.56;;;6.38;91.92
72038;BME280;59900;50.788;12.904;2023-03-26T02:32:03;96572.97;;;6.37;91.56
72038;BME280;59900;50.788;12.904;2023-03-26T02:34:29;96573.97;;;6.36;91.55
72038;BME280;59900;50.788;12.904;2023-03-26T02:36:54;96564.34;;;6.36;91.15
72038;BME280;59900;50.788;12.904;2023-03-26T02:39:21;96565.31;;;6.35;91.13
72038;BME280;59900;50.788;12.904;2023-03-26T02:41:46;96560.53;;;6.39;91.28
72038;BME280;59900;50.788;12.904;2023-03-26T02:44:11;96555.31;;;6.39;91.83
72038;BME280;59900;50.788;12.904;2023-03-26T02:46:37;96555.31;;;6.39;90.48
72038;BME280;59900;50.788;12.904;2023-03-26T02:49:02;96556.94;;;6.40;90.70
72038;BME280;59900;50.788;12.904;2023-03-26T02:51:27;96561.56;;;6.44;90.94
72038;BME280;59900;50.788;12.904;2023-03-26T02:53:53;96550.31;;;6.44;90.51
72038;BME280;59900;50.788;12.904;2023-03-26T02:56:19;96555.91;;;6.41;90.93
72038;BME280;59900;50.788;12.904;2023-03-26T02:58:44;96556.94;;;6.40;89.96
72038;BME280;59900;50.788;12.904;2023-03-26T03:01:11;96543.69;;;6.41;89.47
72038;BME280;59900;50.788;12.904;2023-03-26T03:03:36;96553.72;;;6.44;88.86
72038;BME280;59900;50.788;12.904;2023-03-26T03:06:02;96548.13;;;6.47;88.29
72038;BME280;59900;50.788;12.904;2023-03-26T03:08:27;96543.34;;;6.51;88.36
72038;BME280;59900;50.788;12.904;2023-03-26T03:11:02;96547.34;;;6.53;88.15
72038;BME280;59900;50.788;12.904;2023-03-26T03:13:28;96546.75;;;6.51;87.27
72038;BME280;59900;50.788;12.904;2023-03-26T03:15:53;96533.31;;;6.54;86.43
72038;BME280;59900;50.788;12.904;2023-03-26T03:18:19;96544.34;;;6.56;86.42
72038;BME280;59900;50.788;12.904;2023-03-26T03:20:44;96541.97;;;6.61;86.48
72038;BME280;59900;50.788;12.904;2023-03-26T03:23:09;96533.72;;;6.64;86.57
72038;BME280;59900;50.788;12.904;2023-03-26T03:25:35;96544.00;;;6.66;85.96
72038;BME280;59900;50.788;12.904;2023-03-26T03:28:00;96538.78;;;6.66;85.12
72038;BME280;59900;50.788;12.904;2023-03-26T03:30:26;96543.78;;;6.67;85.13
72038;BME280;59900;50.788;12.904;2023-03-26T03:32:51;96538.56;;;6.67;85.49
72038;BME280;59900;50.788;12.904;2023-03-26T03:35:16;96541.38;;;6.66;85.83
72038;BME280;59900;50.788;12.904;2023-03-26T03:37:42;96546.59;;;6.66;86.10
72038;BME280;59900;50.788;12.904;2023-03-26T03:40:07;96564.63;;;6.61;88.52
72038;BME280;59900;50.788;12.904;2023-03-26T03:42:35;96578.44;;;6.48;90.79
72038;BME280;59900;50.788;12.904;2023-03-26T03:45:01;96551.28;;;6.36;93.70
72038;BME280;59900;50.788;12.904;2023-03-26T03:47:26;96548.44;;;6.31;94.74
72038;BME280;59900;50.788;12.904;2023-03-26T03:49:51;96547.22;;;6.27;95.21
72038;BME280;59900;50.788;12.904;2023-03-26T03:52:17;96544.78;;;6.26;95.75
72038;BME280;59900;50.788;12.904;2023-03-26T03:54:43;96547.19;;;6.20;96.47
72038;BME280;59900;50.788;12.904;2023-03-26T03:57:08;96547.97;;;6.14;97.21
72038;BME280;59900;50.788;12.904;2023-03-26T03:59:33;96541.53;;;6.10;96.47
72038;BME280;59900;50.788;12.904;2023-03-26T04:01:58;96525.25;;;6.08;96.46
72038;BME280;59900;50.788;12.904;2023-03-26T04:04:24;96528.28;;;6.12;94.57
72038;BME280;59900;50.788;12.904;2023-03-26T04:06:50;96538.94;;;6.17;93.32
72038;BME280;59900;50.788;12.904;2023-03-26T04:09:15;96539.19;;;6.22;92.43
72038;BME280;59900;50.788;12.904;2023-03-26T04:11:41;96545.59;;;6.26;92.85
72038;BME280;59900;50.788;12.904;2023-03-26T04:14:06;96545.81;;;6.25;92.05
72038;BME280;59900;50.788;12.904;2023-03-26T04:16:31;96544.63;;;6.27;92.68
72038;BME280;59900;50.788;12.904;2023-03-26T04:18:56;96546.84;;;6.30;91.03
72038;BME280;59900;50.788;12.904;2023-03-26T04:21:22;96547.44;;;6.32;91.01
72038;BME280;59900;50.788;12.904;2023-03-26T04:23:48;96544.63;;;6.27;90.93
72038;BME280;59900;50.788;12.904;2023-03-26T04:26:16;96542.44;;;6.31;91.51
72038;BME280;59900;50.788;12.904;2023-03-26T04:28:53;96549.63;;;6.29;91.05
72038;BME280;59900;50.788;12.904;2023-03-26T04:31:23;96545.03;;;6.31;90.81
72038;BME280;59900;50.788;12.904;2023-03-26T04:33:53;96535.00;;;6.34;90.35
72038;BME280;59900;50.788;12.904;2023-03-26T04:36:25;96527.19;;;6.34;90.72
72038;BME280;59900;50.788;12.904;2023-03-26T04:38:51;96528.78;;;6.35;90.86
72038;BME280;59900;50.788;12.904;2023-03-26T04:41:17;96525.38;;;6.35;90.45
72038;BME280;59900;50.788;12.904;2023-03-26T04:43:42;96527.00;;;6.36;90.49
72038;BME280;59900;50.788;12.904;2023-03-26T04:46:18;96531.22;;;6.37;89.98
72038;BME280;59900;50.788;12.904;2023-03-26T04:48:46;96525.81;;;6.38;89.14
72038;BME280;59900;50.788;12.904;2023-03-26T04:51:13;96517.41;;;6.43;89.03
72038;BME280;59900;50.788;12.904;2023-03-26T04:53:54;96527.47;;;6.46;88.75
72038;BME280;59900;50.788;12.904;2023-03-26T04:58:50;96525.25;;;6.49;88.40
72038;BME280;59900;50.788;12.904;2023-03-26T05:01:16;96538.91;;;6.51;88.75
72038;BME280;59900;50.788;12.904;2023-03-26T05:03:42;96538.91;;;6.51;89.13
72038;BME280;59900;50.788;12.904;2023-03-26T05:06:10;96542.31;;;6.52;89.20
72038;BME280;59900;50.788;12.904;2023-03-26T05:08:37;96542.69;;;6.49;89.69
72038;BME280;59900;50.788;12.904;2023-03-26T05:11:02;96537.69;;;6.47;91.03
72038;BME280;59900;50.788;12.904;2023-03-26T05:13:31;96538.28;;;6.49;90.23
72038;BME280;59900;50.788;12.904;2023-03-26T05:15:56;96537.69;;;6.47;90.98
72038;BME280;59900;50.788;12.904;2023-03-26T05:18:22;96537.69;;;6.47;91.07
72038;BME280;59900;50.788;12.904;2023-03-26T05:20:47;96541.50;;;6.45;90.53
72038;BME280;59900;50.788;12.904;2023-03-26T05:23:12;96530.84;;;6.46;90.71
72038;BME280;59900;50.788;12.904;2023-03-26T05:25:37;96540.50;;;6.46;90.21
72038;BME280;59900;50.788;12.904;2023-03-26T05:28:03;96547.69;;;6.44;89.64
72038;BME280;59900;50.788;12.904;2023-03-26T05:30:28;96535.28;;;6.46;89.71
72038;BME280;59900;50.788;12.904;2023-03-26T05:32:53;96525.03;;;6.44;89.26
72038;BME280;59900;50.788;12.904;2023-03-26T05:35:18;96533.66;;;6.45;89.21
72038;BME280;59900;50.788;12.904;2023-03-26T05:37:45;96535.47;;;6.44;89.79
72038;BME280;59900;50.788;12.904;2023-03-26T05:40:12;96537.25;;;6.44;89.67
72038;BME280;59900;50.788;12.904;2023-03-26T05:42:41;96536.44;;;6.43;89.64
72038;BME280;59900;50.788;12.904;2023-03-26T05:45:08;96533.66;;;6.45;89.46
72038;BME280;59900;50.788;12.904;2023-03-26T05:47:34;96542.47;;;6.44;89.29
72038;BME280;59900;50.788;12.904;2023-03-26T05:49:59;96532.69;;;6.46;89.33
72038;BME280;59900;50.788;12.904;2023-03-26T05:52:25;96532.47;;;6.47;89.23
72038;BME280;59900;50.788;12.904;2023-03-26T05:54:50;96531.47;;;6.48;89.32
72038;BME280;59900;50.788;12.904;2023-03-26T05:57:15;96511.63;;;6.54;89.39
72038;BME280;59900;50.788;12.904;2023-03-26T05:59:42;96518.44;;;6.55;89.20
72038;BME280;59900;50.788;12.904;2023-03-26T06:02:08;96515.81;;;6.55;88.85
72038;BME280;59900;50.788;12.904;2023-03-26T06:04:34;96515.03;;;6.54;89.20
72038;BME280;59900;50.788;12.904;2023-03-26T06:06:59;96507.00;;;6.56;89.19
72038;BME280;59900;50.788;12.904;2023-03-26T06:09:26;96507.81;;;6.56;88.82
72038;BME280;59900;50.788;12.904;2023-03-26T06:11:51;96502.00;;;6.61;88.76
72038;BME280;59900;50.788;12.904;2023-03-26T06:14:16;96503.00;;;6.60;88.59
72038;BME280;59900;50.788;12.904;2023-03-26T06:16:41;96508.22;;;6.60;88.06
72038;BME280;59900;50.788;12.904;2023-03-26T06:19:07;96494.38;;;6.59;88.29
72038;BME280;59900;50.788;12.904;2023-03-26T06:21:32;96492.97;;;6.63;88.38
72038;BME280;59900;50.788;12.904;2023-03-26T06:23:57;96493.59;;;6.65;87.94
72038;BME280;59900;50.788;12.904;2023-03-26T06:26:23;96497.59;;;6.68;87.97
72038;BME280;59900;50.788;12.904;2023-03-26T06:28:48;96491.56;;;6.67;87.36
72038;BME280;59900;50.788;12.904;2023-03-26T06:31:13;96491.41;;;6.69;87.46
72038;BME280;59900;50.788;12.904;2023-03-26T06:33:41;96490.59;;;6.68;86.56
72038;BME280;59900;50.788;12.904;2023-03-26T06:36:06;96496.63;;;6.69;86.45
72038;BME280;59900;50.788;12.904;2023-03-26T06:38:31;96503.63;;;6.68;86.06
72038;BME280;59900;50.788;12.904;2023-03-26T06:41:04;96495.19;;;6.73;86.44
72038;BME280;59900;50.788;12.904;2023-03-26T06:43:30;96489.59;;;6.76;86.22
72038;BME280;59900;50.788;12.904;2023-03-26T06:45:58;96490.00;;;6.80;86.19
72038;BME280;59900;50.788;12.904;2023-03-26T06:48:23;96489.78;;;6.81;86.02
72038;BME280;59900;50.788;12.904;2023-03-26T06:50:49;96493.84;;;6.84;84.65
72038;BME280;59900;50.788;12.904;2023-03-26T06:53:14;96492.81;;;6.85;85.13
72038;BME280;59900;50.788;12.904;2023-03-26T06:55:39;96487.41;;;6.86;84.81
72038;BME280;59900;50.788;12.904;2023-03-26T06:58:05;96493.06;;;6.90;84.57
72038;BME280;59900;50.788;12.904;2023-03-26T07:00:31;96492.25;;;6.89;84.19
72038;BME280;59900;50.788;12.904;2023-03-26T07:02:56;96503.69;;;6.95;83.94
72038;BME280;59900;50.788;12.904;2023-03-26T07:05:21;96484.63;;;7.01;83.62
72038;BME280;59900;50.788;12.904;2023-03-26T07:07:46;96483.19;;;7.05;83.69
72038;BME280;59900;50.788;12.904;2023-03-26T07:10:12;96486.63;;;7.12;84.36
72038;BME280;59900;50.788;12.904;2023-03-26T07:12:38;96494.06;;;7.08;82.75
72038;BME280;59900;50.788;12.904;2023-03-26T07:15:03;96482.63;;;7.16;83.66
72038;BME280;59900;50.788;12.904;2023-03-26T07:17:29;96483.63;;;7.21;83.73
72038;BME280;59900;50.788;12.904;2023-03-26T07:19:54;96482.44;;;7.24;82.97
72038;BME280;59900;50.788;12.904;2023-03-26T07:22:23;96483.22;;;7.31;82.77
72038;BME280;59900;50.788;12.904;2023-03-26T07:24:49;96477.81;;;7.39;82.70
72038;BME280;59900;50.788;12.904;2023-03-26T07:30:08;96480.41;;;7.46;81.98
72038;BME280;59900;50.788;12.904;2023-03-26T07:32:47;96480.00;;;7.49;81.71
72038;BME280;59900;50.788;12.904;2023-03-26T07:35:19;96474.00;;;7.48;81.75
72038;BME280;59900;50.788;12.904;2023-03-26T07:38:19;96472.38;;;7.47;81.70
72038;BME280;59900;50.788;12.904;2023-03-26T07:41:02;96469.34;;;7.50;81.45
72038;BME280;59900;50.788;12.904;2023-03-26T07:43:55;96459.72;;;7.57;81.91
72038;BME280;59900;50.788;12.904;2023-03-26T07:46:31;96462.31;;;7.57;81.16
72038;BME280;59900;50.788;12.904;2023-03-26T07:48:58;96462.28;;;7.64;80.30
72038;BME280;59900;50.788;12.904;2023-03-26T07:51:24;96464.09;;;7.70;80.33
72038;BME280;59900;50.788;12.904;2023-03-26T07:53:50;96460.88;;;7.74;79.62
72038;BME280;59900;50.788;12.904;2023-03-26T07:56:18;96452.41;;;7.79;79.51
72038;BME280;59900;50.788;12.904;2023-03-26T07:59:09;96452.22;;;7.80;78.96
72038;BME280;59900;50.788;12.904;2023-03-26T08:01:51;96449.19;;;7.83;78.78
72038;BME280;59900;50.788;12.904;2023-03-26T08:04:26;96440.72;;;7.95;79.20
72038;BME280;59900;50.788;12.904;2023-03-26T08:08:09;96449.97;;;7.90;77.58
72038;BME280;59900;50.788;12.904;2023-03-26T08:10:22;96443.94;;;7.90;78.34
72038;BME280;59900;50.788;12.904;2023-03-26T08:13:29;96439.09;;;7.94;77.63
72038;BME280;59900;50.788;12.904;2023-03-26T08:16:13;96437.69;;;7.98;78.07
72038;BME280;59900;50.788;12.904;2023-03-26T08:21:34;96439.63;;;8.15;76.85
72038;BME280;59900;50.788;12.904;2023-03-26T08:24:17;96428.13;;;8.23;77.21
72038;BME280;59900;50.788;12.904;2023-03-26T08:26:52;96447.03;;;8.25;76.16
72038;BME280;59900;50.788;12.904;2023-03-26T08:29:34;96443.41;;;8.26;75.56
72038;BME280;59900;50.788;12.904;2023-03-26T08:32:15;96424.88;;;8.34;76.06
72038;BME280;59900;50.788;12.904;2023-03-26T08:34:41;96427.69;;;8.39;76.71
72038;BME280;59900;50.788;12.904;2023-03-26T08:37:06;96438.91;;;8.46;75.15
72038;BME280;59900;50.788;12.904;2023-03-26T08:39:34;96425.03;;;8.45;73.92
72038;BME280;59900;50.788;12.904;2023-03-26T08:42:23;96431.25;;;8.51;73.90
72038;BME280;59900;50.788;12.904;2023-03-26T08:47:58;96427.06;;;8.37;74.05
72038;BME280;59900;50.788;12.904;2023-03-26T08:53:52;96425.81;;;8.46;73.67
72038;BME280;59900;50.788;12.904;2023-03-26T08:57:02;96410.94;;;8.47;73.19
72038;BME280;59900;50.788;12.904;2023-03-26T09:02:48;96408.25;;;8.60;72.22
72038;BME280;59900;50.788;12.904;2023-03-26T09:08:27;96412.06;;;8.57;70.61
72038;BME280;59900;50.788;12.904;2023-03-26T09:11:28;96403.38;;;8.63;71.75
72038;BME280;59900;50.788;12.904;2023-03-26T09:14:27;96404.06;;;8.83;71.00
72038;BME280;59900;50.788;12.904;2023-03-26T09:25:24;96394.81;;;9.06;69.31
72038;BME280;59900;50.788;12.904;2023-03-26T09:28:17;96395.56;;;9.13;69.52
72038;BME280;59900;50.788;12.904;2023-03-26T09:31:20;96395.19;;;9.09;67.00
72038;BME280;59900;50.788;12.904;2023-03-26T09:33:55;96387.09;;;9.11;68.67
72038;BME280;59900;50.788;12.904;2023-03-26T09:36:29;96384.91;;;9.08;69.02
72038;BME280;59900;50.788;12.904;2023-03-26T09:39:21;96385.72;;;9.08;68.14
72038;BME280;59900;50.788;12.904;2023-03-26T09:42:07;96373.16;;;9.17;67.53
72038;BME280;59900;50.788;12.904;2023-03-26T09:50:50;96356.09;;;9.50;64.84
72038;BME280;59900;50.788;12.904;2023-03-26T10:01:41;96326.00;;;9.71;61.79
72038;BME280;59900;50.788;12.904;2023-03-26T10:04:35;96332.50;;;9.69;62.56
72038;BME280;59900;50.788;12.904;2023-03-26T10:12:41;96316.34;;;10.01;62.44
72038;BME280;59900;50.788;12.904;2023-03-26T10:15:40;96309.47;;;10.19;62.05
72038;BME280;59900;50.788;12.904;2023-03-26T10:18:43;96293.53;;;10.32;61.57
72038;BME280;59900;50.788;12.904;2023-03-26T10:27:22;96294.50;;;10.19;58.95
72038;BME280;59900;50.788;12.904;2023-03-26T10:33:10;96297.19;;;10.31;59.01
72038;BME280;59900;50.788;12.904;2023-03-26T10:35:47;96292.53;;;10.33;59.10
72038;BME280;59900;50.788;12.904;2023-03-26T10:38:27;96295.84;;;10.40;60.12
72038;BME280;59900;50.788;12.904;2023-03-26T10:44:16;96283.59;;;10.34;60.10
72038;BME280;59900;50.788;12.904;2023-03-26T10:46:55;96284.75;;;10.38;60.20
72038;BME280;59900;50.788;12.904;2023-03-26T10:51:59;96279.41;;;10.33;57.75
72038;BME280;59900;50.788;12.904;2023-03-26T10:54:47;96274.34;;;10.31;58.54
72038;BME280;59900;50.788;12.904;2023-03-26T10:57:24;96276.16;;;10.31;57.07
72038;BME280;59900;50.788;12.904;2023-03-26T10:59:54;96272.41;;;10.27;57.98
72038;BME280;59900;50.788;12.904;2023-03-26T11:02:27;96270.59;;;10.27;58.73
72038;BME280;59900;50.788;12.904;2023-03-26T11:07:41;96264.91;;;10.30;59.72
72038;BME280;59900;50.788;12.904;2023-03-26T11:10:19;96261.00;;;10.33;59.14
72038;BME280;59900;50.788;12.904;2023-03-26T11:12:57;96263.41;;;10.34;57.74
72038;BME280;59900;50.788;12.904;2023-03-26T11:15:55;96260.13;;;10.39;59.06
72038;BME280;59900;50.788;12.904;2023-03-26T11:18:38;96254.72;;;10.34;59.00
72038;BME280;59900;50.788;12.904;2023-03-26T11:21:32;96249.38;;;10.40;60.00
72038;BME280;59900;50.788;12.904;2023-03-26T11:24:16;96249.00;;;10.37;59.71
72038;BME280;59900;50.788;12.904;2023-03-26T11:27:12;96244.13;;;10.40;59.39
72038;BME280;59900;50.788;12.904;2023-03-26T11:29:58;96239.31;;;10.37;58.98
72038;BME280;59900;50.788;12.904;2023-03-26T11:32:40;96248.81;;;10.38;59.92
72038;BME280;59900;50.788;12.904;2023-03-26T11:37:49;96243.19;;;10.35;57.21
72038;BME280;59900;50.788;12.904;2023-03-26T11:40:34;96251.06;;;10.23;56.72
72038;BME280;59900;50.788;12.904;2023-03-26T11:43:03;96242.25;;;10.18;57.24
72038;BME280;59900;50.788;12.904;2023-03-26T11:45:32;96251.13;;;10.17;58.33
72038;BME280;59900;50.788;12.904;2023-03-26T11:50:52;96253.44;;;10.25;58.97
72038;BME280;59900;50.788;12.904;2023-03-26T11:53:29;96250.34;;;10.16;58.25
72038;BME280;59900;50.788;12.904;2023-03-26T11:56:12;96256.75;;;10.20;58.36
72038;BME280;59900;50.788;12.904;2023-03-26T11:58:50;96255.22;;;10.12;58.63
72038;BME280;59900;50.788;12.904;2023-03-26T12:01:25;96250.13;;;10.18;59.56
72038;BME280;59900;50.788;12.904;2023-03-26T12:04:07;96247.50;;;10.18;59.78
72038;BME280;59900;50.788;12.904;2023-03-26T12:06:35;96249.00;;;10.25;60.64
72038;BME280;59900;50.788;12.904;2023-03-26T12:09:01;96237.69;;;10.25;59.70
72038;BME280;59900;50.788;12.904;2023-03-26T12:11:28;96241.09;;;10.13;58.83
72038;BME280;59900;50.788;12.904;2023-03-26T12:14:03;96250.34;;;10.16;59.84
72038;BME280;59900;50.788;12.904;2023-03-26T12:16:29;96242.75;;;10.08;60.38
72038;BME280;59900;50.788;12.904;2023-03-26T12:19:08;96239.91;;;10.09;61.18
72038;BME280;59900;50.788;12.904;2023-03-26T12:21:50;96245.63;;;10.06;61.43
72038;BME280;59900;50.788;12.904;2023-03-26T12:24:27;96232.47;;;9.95;61.81
72038;BME280;59900;50.788;12.904;2023-03-26T12:27:20;96233.84;;;9.97;61.15
72038;BME280;59900;50.788;12.904;2023-03-26T12:30:08;96228.34;;;9.99;61.71
72038;BME280;59900;50.788;12.904;2023-03-26T12:32:37;96227.88;;;9.90;62.48
72038;BME280;59900;50.788;12.904;2023-03-26T12:35:06;96236.63;;;9.84;64.08
72038;BME280;59900;50.788;12.904;2023-03-26T12:37:37;96260.31;;;9.48;66.20
72038;BME280;59900;50.788;12.904;2023-03-26T12:40:31;96251.66;;;9.29;68.40
72038;BME280;59900;50.788;12.904;2023-03-26T12:43:23;96258.63;;;9.17;69.27
72038;BME280;59900;50.788;12.904;2023-03-26T12:45:53;96282.28;;;9.11;71.98
72038;BME280;59900;50.788;12.904;2023-03-26T12:48:19;96262.31;;;8.91;74.53
72038;BME280;59900;50.788;12.904;2023-03-26T12:53:45;96266.47;;;8.56;75.15
72038;BME280;59900;50.788;12.904;2023-03-26T12:56:30;96258.69;;;8.43;75.20
72038;BME280;59900;50.788;12.904;2023-03-26T12:59:16;96263.34;;;8.41;76.57
72038;BME280;59900;50.788;12.904;2023-03-26T13:02:10;96264.63;;;8.32;77.51
72038;BME280;59900;50.788;12.904;2023-03-26T13:07:33;96260.13;;;8.08;82.23
72038;BME280;59900;50.788;12.904;2023-03-26T13:10:26;96260.97;;;8.02;84.03
72038;BME280;59900;50.788;12.904;2023-03-26T13:13:32;96254.72;;;8.03;84.18
72038;BME280;59900;50.788;12.904;2023-03-26T13:16:15;96257.34;;;8.03;83.90
72038;BME280;59900;50.788;12.904;2023-03-26T13:18:54;96255.69;;;8.08;84.35
72038;BME280;59900;50.788;12.904;2023-03-26T13:30:11;96243.19;;;8.10;83.84
72038;BME280;59900;50.788;12.904;2023-03-26T13:35:48;96235.41;;;8.04;85.31
72038;BME280;59900;50.788;12.904;2023-03-26T13:38:28;96234.81;;;8.02;86.31
72038;BME280;59900;50.788;12.904;2023-03-26T13:43:52;96232.53;;;7.80;87.81
72038;BME280;59900;50.788;12.904;2023-03-26T13:46:28;96234.97;;;7.75;87.76
72038;BME280;59900;50.788;12.904;2023-03-26T13:49:08;96234.41;;;7.67;89.54
72038;BME280;59900;50.788;12.904;2023-03-26T13:54:26;96232.94;;;7.40;88.66
72038;BME280;59900;50.788;12.904;2023-03-26T13:57:04;96227.72;;;7.40;89.89
72038;BME280;59900;50.788;12.904;2023-03-26T13:59:47;96225.47;;;7.43;89.46
72038;BME280;59900;50.788;12.904;2023-03-26T14:02:32;96221.88;;;7.44;87.88
72038;BME280;59900;50.788;12.904;2023-03-26T14:05:06;96219.63;;;7.48;88.87
72038;BME280;59900;50.788;12.904;2023-03-26T14:07:40;96219.41;;;7.49;87.46
72038;BME280;59900;50.788;12.904;2023-03-26T14:10:18;96206.16;;;7.51;86.86
72038;BME280;59900;50.788;12.904;2023-03-26T14:15:54;96202.56;;;7.45;86.68
72038;BME280;59900;50.788;12.904;2023-03-26T14:18:51;96200.94;;;7.51;87.05
72038;BME280;59900;50.788;12.904;2023-03-26T14:21:32;96192.44;;;7.55;87.10
72038;BME280;59900;50.788;12.904;2023-03-26T14:29:52;96191.97;;;7.71;86.98
72038;BME280;59900;50.788;12.904;2023-03-26T14:32:46;96180.28;;;7.74;86.49
72038;BME280;59900;50.788;12.904;2023-03-26T14:35:34;96176.50;;;7.63;86.24
72038;BME280;59900;50.788;12.904;2023-03-26T14:38:22;96171.09;;;7.65;87.22
72038;BME280;59900;50.788;12.904;2023-03-26T14:41:23;96173.47;;;7.66;87.31
72038;BME280;59900;50.788;12.904;2023-03-26T14:44:12;96177.44;;;7.75;86.95
72038;BME280;59900;50.788;12.904;2023-03-26T14:52:47;96168.38;;;7.78;86.88
72038;BME280;59900;50.788;12.904;2023-03-26T14:58:20;96163.41;;;8.01;86.29
72038;BME280;59900;50.788;12.904;2023-03-26T15:01:27;96156.94;;;8.04;85.24
72038;BME280;59900;50.788;12.904;2023-03-26T15:04:21;96149.81;;;8.11;85.13
72038;BME280;59900;50.788;12.904;2023-03-26T15:12:53;96140.06;;;8.24;85.85
72038;BME280;59900;50.788;12.904;2023-03-26T15:15:32;96152.50;;;8.29;85.48
72038;BME280;59900;50.788;12.904;2023-03-26T15:18:29;96135.94;;;8.35;85.36
72038;BME280;59900;50.788;12.904;2023-03-26T15:27:23;96137.13;;;8.39;85.13
72038;BME280;59900;50.788;12.904;2023-03-26T15:30:00;96139.94;;;8.37;85.21
72038;BME280;59900;50.788;12.904;2023-03-26T15:35:47;96134.78;;;8.31;86.55
72038;BME280;59900;50.788;12.904;2023-03-26T15:38:40;96142.63;;;8.31;86.82
72038;BME280;59900;50.788;12.904;2023-03-26T15:49:08;96126.06;;;8.12;86.50
72038;BME280;59900;50.788;12.904;2023-03-26T15:51:54;96119.66;;;8.08;86.84
72038;BME280;59900;50.788;12.904;2023-03-26T15:54:35;96122.06;;;8.10;87.32